sensor_id;sensor_type;location;lat;lon;timestamp;P1;durP1;ratioP1;P2;durP2;ratioP2
16979;SDS011;42288;52.182;21.156;2023-02-12T00:01:28;4.37;;;2.30;;
16979;SDS011;42288;52.182;21.156;2023-02-12T00:03:53;6.53;;;2.73;;
16979;SDS011;42288;52.182;21.156;2023-02-12T00:06:19;5.60;;;1.70;;
16979;SDS011;42288;52.182;21.156;2023-02-12T00:08:47;3.57;;;2.00;;
16979;SDS011;42288;52.182;21.156;2023-02-12T00:11:18;4.37;;;1.90;;
16979;SDS011;42288;52.182;21.156;2023-02-12T00:13:48;4.50;;;2.40;;
16979;SDS011;42288;52.182;21.156;2023-02-12T00:16:15;3.93;;;1.40;;
16979;SDS011;42288;52.182;21.156;2023-02-12T00:18:43;3.97;;;1.87;;
16979;SDS011;42288;52.182;21.156;2023-02-12T00:21:09;4.03;;;1.70;;
16979;SDS011;42288;52.182;21.156;2023-02-12T00:23:37;3.53;;;1.47;;
16979;SDS011;42288;52.182;21.156;2023-02-12T00:26:05;5.33;;;2.17;;
16979;SDS011;42288;52.182;21.156;2023-02-12T00:28:32;3.70;;;1.97;;
16979;SDS011;42288;52.182;21.156;2023-02-12T00:30:58;3.77;;;1.90;;
16979;SDS011;42288;52.182;21.156;2023-02-12T00:33:36;7.40;;;1.83;;
16979;SDS011;42288;52.182;21.156;2023-02-12T00:36:02;3.33;;;1.50;;
16979;SDS011;42288;52.182;21.156;2023-02-12T00:38:28;4.07;;;1.97;;
16979;SDS011;42288;52.182;21.156;2023-02-12T00:40:53;5.43;;;1.97;;
16979;SDS011;42288;52.182;21.156;2023-02-12T00:43:19;5.33;;;2.43;;
16979;SDS011;42288;52.182;21.156;2023-02-12T00:45:45;6.27;;;1.77;;
16979;SDS011;42288;52.182;21.156;2023-02-12T00:48:11;2.77;;;1.23;;
16979;SDS011;42288;52.182;21.156;2023-02-12T00:50:37;3.97;;;1.77;;
16979;SDS011;42288;52.182;21.156;2023-02-12T00:53:05;3.13;;;1.50;;
16979;SDS011;42288;52.182;21.156;2023-02-12T00:55:31;5.27;;;1.63;;
16979;SDS011;42288;52.182;21.156;2023-02-12T00:57:57;5.50;;;1.90;;
16979;SDS011;42288;52.182;21.156;2023-02-12T01:00:23;5.40;;;1.63;;
16979;SDS011;42288;52.182;21.156;2023-02-12T01:02:49;3.80;;;1.60;;
16979;SDS011;42288;52.182;21.156;2023-02-12T01:05:15;6.23;;;2.00;;
16979;SDS011;42288;52.182;21.156;2023-02-12T01:07:41;3.17;;;1.43;;
16979;SDS011;42288;52.182;21.156;2023-02-12T01:10:06;7.07;;;1.70;;
16979;SDS011;42288;52.182;21.156;2023-02-12T01:12:33;4.30;;;1.50;;
16979;SDS011;42288;52.182;21.156;2023-02-12T01:14:59;2.60;;;1.53;;
16979;SDS011;42288;52.182;21.156;2023-02-12T01:17:24;5.50;;;1.53;;
16979;SDS011;42288;52.182;21.156;2023-02-12T01:19:50;3.13;;;1.43;;
16979;SDS011;42288;52.182;21.156;2023-02-12T01:22:20;4.90;;;1.43;;
16979;SDS011;42288;52.182;21.156;2023-02-12T01:24:45;2.37;;;1.30;;
16979;SDS011;42288;52.182;21.156;2023-02-12T01:27:11;2.43;;;1.57;;
16979;SDS011;42288;52.182;21.156;2023-02-12T01:29:36;5.07;;;1.43;;
16979;SDS011;42288;52.182;21.156;2023-02-12T01:32:03;4.13;;;1.53;;
16979;SDS011;42288;52.182;21.156;2023-02-12T01:34:29;3.00;;;1.40;;
16979;SDS011;42288;52.182;21.156;2023-02-12T01:36:55;3.70;;;1.50;;
16979;SDS011;42288;52.182;21.156;2023-02-12T01:39:20;2.90;;;1.50;;
16979;SDS011;42288;52.182;21.156;2023-02-12T01:41:46;2.97;;;1.10;;
16979;SDS011;42288;52.182;21.156;2023-02-12T01:46:49;3.17;;;1.40;;
16979;SDS011;42288;52.182;21.156;2023-02-12T01:49:23;2.50;;;1.40;;
16979;SDS011;42288;52.182;21.156;2023-02-12T01:52:19;3.90;;;1.43;;
16979;SDS011;42288;52.182;21.156;2023-02-12T01:54:52;3.77;;;1.40;;
16979;SDS011;42288;52.182;21.156;2023-02-12T01:57:20;4.63;;;1.50;;
16979;SDS011;42288;52.182;21.156;2023-02-12T01:59:47;5.13;;;1.20;;
16979;SDS011;42288;52.182;21.156;2023-02-12T02:02:16;4.97;;;1.40;;
16979;SDS011;42288;52.182;21.156;2023-02-12T02:04:45;3.23;;;1.20;;
16979;SDS011;42288;52.182;21.156;2023-02-12T02:07:15;2.47;;;1.13;;
16979;SDS011;42288;52.182;21.156;2023-02-12T02:09:41;2.40;;;1.50;;
16979;SDS011;42288;52.182;21.156;2023-02-12T02:12:08;3.73;;;1.43;;
16979;SDS011;42288;52.182;21.156;2023-02-12T02:15:09;3.20;;;1.47;;
16979;SDS011;42288;52.182;21.156;2023-02-12T02:20:47;1.67;;;1.10;;
16979;SDS011;42288;52.182;21.156;2023-02-12T02:28:37;2.97;;;1.40;;
16979;SDS011;42288;52.182;21.156;2023-02-12T02:34:22;5.63;;;1.40;;
16979;SDS011;42288;52.182;21.156;2023-02-12T02:36:49;3.97;;;1.33;;
16979;SDS011;42288;52.182;21.156;2023-02-12T02:39:34;3.53;;;1.60;;
16979;SDS011;42288;52.182;21.156;2023-02-12T02:42:51;3.37;;;1.80;;
16979;SDS011;42288;52.182;21.156;2023-02-12T02:44:54;2.63;;;1.27;;
16979;SDS011;42288;52.182;21.156;2023-02-12T02:47:30;4.47;;;1.83;;
16979;SDS011;42288;52.182;21.156;2023-02-12T02:50:01;2.13;;;1.30;;
16979;SDS011;42288;52.182;21.156;2023-02-12T02:52:40;1.97;;;1.20;;
16979;SDS011;42288;52.182;21.156;2023-02-12T02:55:12;3.90;;;1.40;;
16979;SDS011;42288;52.182;21.156;2023-02-12T03:03:08;1.73;;;1.27;;
16979;SDS011;42288;52.182;21.156;2023-02-12T03:05:41;1.60;;;1.30;;
16979;SDS011;42288;52.182;21.156;2023-02-12T03:08:18;2.20;;;1.30;;
16979;SDS011;42288;52.182;21.156;2023-02-12T03:10:50;1.90;;;1.30;;
16979;SDS011;42288;52.182;21.156;2023-02-12T03:13:25;3.80;;;2.03;;
16979;SDS011;42288;52.182;21.156;2023-02-12T03:16:02;3.33;;;1.23;;
16979;SDS011;42288;52.182;21.156;2023-02-12T03:18:35;3.33;;;1.30;;
16979;SDS011;42288;52.182;21.156;2023-02-12T03:21:08;4.07;;;1.60;;
16979;SDS011;42288;52.182;21.156;2023-02-12T03:23:48;2.63;;;1.60;;
16979;SDS011;42288;52.182;21.156;2023-02-12T03:26:37;2.43;;;1.33;;
16979;SDS011;42288;52.182;21.156;2023-02-12T03:29:07;2.63;;;1.30;;
16979;SDS011;42288;52.182;21.156;2023-02-12T03:31:52;1.93;;;1.40;;
16979;SDS011;42288;52.182;21.156;2023-02-12T03:48:24;4.07;;;1.50;;
16979;SDS011;42288;52.182;21.156;2023-02-12T03:50:59;2.57;;;1.20;;
16979;SDS011;42288;52.182;21.156;2023-02-12T03:53:46;2.00;;;1.10;;
16979;SDS011;42288;52.182;21.156;2023-02-12T03:56:14;1.87;;;1.27;;
16979;SDS011;42288;52.182;21.156;2023-02-12T03:58:46;1.97;;;1.03;;
16979;SDS011;42288;52.182;21.156;2023-02-12T04:01:11;3.57;;;1.40;;
16979;SDS011;42288;52.182;21.156;2023-02-12T04:03:38;2.67;;;1.37;;
16979;SDS011;42288;52.182;21.156;2023-02-12T04:06:04;2.27;;;1.10;;
16979;SDS011;42288;52.182;21.156;2023-02-12T04:08:41;2.30;;;1.40;;
16979;SDS011;42288;52.182;21.156;2023-02-12T04:11:11;3.20;;;1.23;;
16979;SDS011;42288;52.182;21.156;2023-02-12T04:13:52;3.37;;;1.57;;
16979;SDS011;42288;52.182;21.156;2023-02-12T04:16:46;3.97;;;1.40;;
16979;SDS011;42288;52.182;21.156;2023-02-12T04:19:28;2.50;;;1.40;;
16979;SDS011;42288;52.182;21.156;2023-02-12T04:27:21;2.90;;;1.30;;
16979;SDS011;42288;52.182;21.156;2023-02-12T04:32:49;2.03;;;1.30;;
16979;SDS011;42288;52.182;21.156;2023-02-12T04:35:23;3.00;;;1.50;;
16979;SDS011;42288;52.182;21.156;2023-02-12T04:38:01;1.97;;;1.30;;
16979;SDS011;42288;52.182;21.156;2023-02-12T04:40:29;2.90;;;1.30;;
16979;SDS011;42288;52.182;21.156;2023-02-12T04:42:55;2.43;;;1.37;;
16979;SDS011;42288;52.182;21.156;2023-02-12T04:45:23;2.27;;;1.40;;
16979;SDS011;42288;52.182;21.156;2023-02-12T04:47:51;2.53;;;1.50;;
16979;SDS011;42288;52.182;21.156;2023-02-12T04:50:17;3.67;;;1.67;;
16979;SDS011;42288;52.182;21.156;2023-02-12T04:52:43;2.83;;;1.20;;
16979;SDS011;42288;52.182;21.156;2023-02-12T04:55:09;2.17;;;1.30;;
16979;SDS011;42288;52.182;21.156;2023-02-12T04:57:34;1.73;;;1.40;;
16979;SDS011;42288;52.182;21.156;2023-02-12T05:00:00;1.90;;;1.27;;
16979;SDS011;42288;52.182;21.156;2023-02-12T05:02:26;2.47;;;1.20;;
16979;SDS011;42288;52.182;21.156;2023-02-12T05:04:52;2.13;;;1.40;;
16979;SDS011;42288;52.182;21.156;2023-02-12T05:07:17;2.20;;;1.30;;
16979;SDS011;42288;52.182;21.156;2023-02-12T05:09:43;2.67;;;1.43;;
16979;SDS011;42288;52.182;21.156;2023-02-12T05:12:08;1.70;;;1.40;;
16979;SDS011;42288;52.182;21.156;2023-02-12T05:14:34;2.40;;;1.30;;
16979;SDS011;42288;52.182;21.156;2023-02-12T05:16:59;2.77;;;1.50;;
16979;SDS011;42288;52.182;21.156;2023-02-12T05:19:25;1.77;;;1.40;;
16979;SDS011;42288;52.182;21.156;2023-02-12T05:21:51;2.40;;;1.20;;
16979;SDS011;42288;52.182;21.156;2023-02-12T05:24:16;1.70;;;1.37;;
16979;SDS011;42288;52.182;21.156;2023-02-12T05:26:42;2.67;;;1.53;;
16979;SDS011;42288;52.182;21.156;2023-02-12T05:29:08;4.77;;;1.77;;
16979;SDS011;42288;52.182;21.156;2023-02-12T05:31:33;2.27;;;1.43;;
16979;SDS011;42288;52.182;21.156;2023-02-12T05:33:59;3.27;;;1.60;;
16979;SDS011;42288;52.182;21.156;2023-02-12T05:36:25;4.30;;;1.60;;
16979;SDS011;42288;52.182;21.156;2023-02-12T05:38:51;1.97;;;1.43;;
16979;SDS011;42288;52.182;21.156;2023-02-12T05:41:20;2.23;;;1.40;;
16979;SDS011;42288;52.182;21.156;2023-02-12T05:43:48;3.07;;;1.60;;
16979;SDS011;42288;52.182;21.156;2023-02-12T05:46:14;3.17;;;1.40;;
16979;SDS011;42288;52.182;21.156;2023-02-12T05:48:40;2.40;;;1.50;;
16979;SDS011;42288;52.182;21.156;2023-02-12T05:51:10;1.93;;;1.33;;
16979;SDS011;42288;52.182;21.156;2023-02-12T05:53:38;3.63;;;1.33;;
16979;SDS011;42288;52.182;21.156;2023-02-12T05:56:11;3.67;;;1.57;;
16979;SDS011;42288;52.182;21.156;2023-02-12T05:58:38;3.83;;;1.73;;
16979;SDS011;42288;52.182;21.156;2023-02-12T06:01:09;2.20;;;1.50;;
16979;SDS011;42288;52.182;21.156;2023-02-12T06:03:39;1.97;;;1.40;;
16979;SDS011;42288;52.182;21.156;2023-02-12T06:06:05;2.30;;;1.47;;
16979;SDS011;42288;52.182;21.156;2023-02-12T06:08:31;2.73;;;1.63;;
16979;SDS011;42288;52.182;21.156;2023-02-12T06:11:01;4.70;;;1.70;;
16979;SDS011;42288;52.182;21.156;2023-02-12T06:13:29;3.77;;;1.70;;
16979;SDS011;42288;52.182;21.156;2023-02-12T06:15:55;3.40;;;1.70;;
16979;SDS011;42288;52.182;21.156;2023-02-12T06:18:21;4.40;;;1.77;;
16979;SDS011;42288;52.182;21.156;2023-02-12T06:20:47;3.43;;;1.80;;
16979;SDS011;42288;52.182;21.156;2023-02-12T06:23:12;3.20;;;1.47;;
16979;SDS011;42288;52.182;21.156;2023-02-12T06:25:38;3.17;;;1.53;;
16979;SDS011;42288;52.182;21.156;2023-02-12T06:28:03;4.87;;;1.77;;
16979;SDS011;42288;52.182;21.156;2023-02-12T06:30:29;2.53;;;1.70;;
16979;SDS011;42288;52.182;21.156;2023-02-12T06:32:55;2.20;;;1.47;;
16979;SDS011;42288;52.182;21.156;2023-02-12T06:35:21;4.50;;;1.80;;
16979;SDS011;42288;52.182;21.156;2023-02-12T06:37:47;5.60;;;2.57;;
16979;SDS011;42288;52.182;21.156;2023-02-12T06:40:12;5.33;;;2.60;;
16979;SDS011;42288;52.182;21.156;2023-02-12T06:42:38;3.50;;;2.20;;
16979;SDS011;42288;52.182;21.156;2023-02-12T06:45:04;4.83;;;2.40;;
16979;SDS011;42288;52.182;21.156;2023-02-12T06:47:29;5.30;;;2.53;;
16979;SDS011;42288;52.182;21.156;2023-02-12T06:49:55;4.00;;;2.40;;
16979;SDS011;42288;52.182;21.156;2023-02-12T06:52:20;5.20;;;2.23;;
16979;SDS011;42288;52.182;21.156;2023-02-12T06:54:46;6.23;;;2.70;;
16979;SDS011;42288;52.182;21.156;2023-02-12T06:57:12;5.27;;;2.53;;
16979;SDS011;42288;52.182;21.156;2023-02-12T06:59:38;4.53;;;2.47;;
16979;SDS011;42288;52.182;21.156;2023-02-12T07:02:03;5.43;;;2.30;;
16979;SDS011;42288;52.182;21.156;2023-02-12T07:04:29;4.83;;;2.77;;
16979;SDS011;42288;52.182;21.156;2023-02-12T07:06:54;7.43;;;4.07;;
16979;SDS011;42288;52.182;21.156;2023-02-12T07:09:20;6.07;;;3.03;;
16979;SDS011;42288;52.182;21.156;2023-02-12T07:11:45;6.13;;;3.03;;
16979;SDS011;42288;52.182;21.156;2023-02-12T07:14:14;6.17;;;3.10;;
16979;SDS011;42288;52.182;21.156;2023-02-12T07:16:40;5.87;;;2.90;;
16979;SDS011;42288;52.182;21.156;2023-02-12T07:19:06;11.73;;;5.10;;
16979;SDS011;42288;52.182;21.156;2023-02-12T07:21:32;36.60;;;15.43;;
16979;SDS011;42288;52.182;21.156;2023-02-12T07:23:57;78.60;;;31.30;;
16979;SDS011;42288;52.182;21.156;2023-02-12T07:26:23;6.43;;;3.53;;
16979;SDS011;42288;52.182;21.156;2023-02-12T07:28:49;9.53;;;6.13;;
16979;SDS011;42288;52.182;21.156;2023-02-12T07:31:16;4.30;;;2.60;;
16979;SDS011;42288;52.182;21.156;2023-02-12T07:33:43;4.63;;;2.40;;
16979;SDS011;42288;52.182;21.156;2023-02-12T07:36:11;5.50;;;2.07;;
16979;SDS011;42288;52.182;21.156;2023-02-12T07:38:38;4.73;;;2.80;;
16979;SDS011;42288;52.182;21.156;2023-02-12T07:41:05;7.20;;;4.27;;
16979;SDS011;42288;52.182;21.156;2023-02-12T07:43:36;5.80;;;3.10;;
16979;SDS011;42288;52.182;21.156;2023-02-12T07:46:10;4.03;;;2.70;;
16979;SDS011;42288;52.182;21.156;2023-02-12T07:48:38;4.07;;;2.40;;
16979;SDS011;42288;52.182;21.156;2023-02-12T07:51:09;3.67;;;2.20;;
16979;SDS011;42288;52.182;21.156;2023-02-12T07:53:35;2.60;;;1.73;;
16979;SDS011;42288;52.182;21.156;2023-02-12T07:56:09;2.63;;;1.80;;
16979;SDS011;42288;52.182;21.156;2023-02-12T07:58:36;4.60;;;1.90;;
16979;SDS011;42288;52.182;21.156;2023-02-12T08:03:42;3.73;;;2.10;;
16979;SDS011;42288;52.182;21.156;2023-02-12T08:06:10;3.67;;;1.70;;
16979;SDS011;42288;52.182;21.156;2023-02-12T08:21:18;3.23;;;1.80;;
16979;SDS011;42288;52.182;21.156;2023-02-12T08:23:46;4.93;;;2.50;;
16979;SDS011;42288;52.182;21.156;2023-02-12T08:26:16;4.23;;;2.10;;
16979;SDS011;42288;52.182;21.156;2023-02-12T08:28:48;5.50;;;2.00;;
16979;SDS011;42288;52.182;21.156;2023-02-12T08:31:18;3.97;;;1.90;;
16979;SDS011;42288;52.182;21.156;2023-02-12T08:33:46;4.00;;;1.90;;
16979;SDS011;42288;52.182;21.156;2023-02-12T08:36:14;3.13;;;1.83;;
16979;SDS011;42288;52.182;21.156;2023-02-12T08:38:42;3.63;;;1.90;;
16979;SDS011;42288;52.182;21.156;2023-02-12T08:41:11;3.97;;;2.37;;
16979;SDS011;42288;52.182;21.156;2023-02-12T08:43:44;3.00;;;1.80;;
16979;SDS011;42288;52.182;21.156;2023-02-12T08:46:14;3.37;;;1.80;;
16979;SDS011;42288;52.182;21.156;2023-02-12T08:48:42;2.63;;;2.03;;
16979;SDS011;42288;52.182;21.156;2023-02-12T08:51:09;2.13;;;1.87;;
16979;SDS011;42288;52.182;21.156;2023-02-12T08:53:37;5.57;;;2.10;;
16979;SDS011;42288;52.182;21.156;2023-02-12T08:56:04;3.23;;;1.80;;
16979;SDS011;42288;52.182;21.156;2023-02-12T08:58:30;4.60;;;1.73;;
16979;SDS011;42288;52.182;21.156;2023-02-12T09:00:56;4.87;;;2.10;;
16979;SDS011;42288;52.182;21.156;2023-02-12T09:03:22;4.90;;;1.87;;
16979;SDS011;42288;52.182;21.156;2023-02-12T09:05:48;4.23;;;1.90;;
16979;SDS011;42288;52.182;21.156;2023-02-12T09:08:13;4.27;;;2.83;;
16979;SDS011;42288;52.182;21.156;2023-02-12T09:10:39;2.73;;;1.90;;
16979;SDS011;42288;52.182;21.156;2023-02-12T09:13:07;2.30;;;1.63;;
16979;SDS011;42288;52.182;21.156;2023-02-12T09:15:41;3.00;;;1.93;;
16979;SDS011;42288;52.182;21.156;2023-02-12T09:18:08;5.43;;;2.40;;
16979;SDS011;42288;52.182;21.156;2023-02-12T09:20:38;3.73;;;2.00;;
16979;SDS011;42288;52.182;21.156;2023-02-12T09:23:07;3.70;;;1.90;;
16979;SDS011;42288;52.182;21.156;2023-02-12T09:25:39;3.77;;;2.13;;
16979;SDS011;42288;52.182;21.156;2023-02-12T09:28:05;6.40;;;2.13;;
16979;SDS011;42288;52.182;21.156;2023-02-12T09:30:32;5.90;;;2.33;;
16979;SDS011;42288;52.182;21.156;2023-02-12T09:32:57;5.97;;;2.70;;
16979;SDS011;42288;52.182;21.156;2023-02-12T09:35:23;8.37;;;2.77;;
16979;SDS011;42288;52.182;21.156;2023-02-12T09:37:49;2.93;;;2.37;;
16979;SDS011;42288;52.182;21.156;2023-02-12T09:40:42;6.70;;;2.70;;
16979;SDS011;42288;52.182;21.156;2023-02-12T09:46:03;7.17;;;2.40;;
16979;SDS011;42288;52.182;21.156;2023-02-12T09:51:18;4.23;;;2.70;;
16979;SDS011;42288;52.182;21.156;2023-02-12T09:53:44;4.87;;;2.70;;
16979;SDS011;42288;52.182;21.156;2023-02-12T09:56:13;4.73;;;2.50;;
16979;SDS011;42288;52.182;21.156;2023-02-12T09:58:45;3.53;;;2.27;;
16979;SDS011;42288;52.182;21.156;2023-02-12T10:01:16;6.50;;;3.60;;
16979;SDS011;42288;52.182;21.156;2023-02-12T10:03:44;8.20;;;4.63;;
16979;SDS011;42288;52.182;21.156;2023-02-12T10:06:13;10.40;;;4.03;;
16979;SDS011;42288;52.182;21.156;2023-02-12T10:14:08;5.00;;;3.30;;
16979;SDS011;42288;52.182;21.156;2023-02-12T10:16:49;6.20;;;3.20;;
16979;SDS011;42288;52.182;21.156;2023-02-12T10:27:36;45.53;;;15.20;;
16979;SDS011;42288;52.182;21.156;2023-02-12T10:30:12;8.87;;;4.80;;
16979;SDS011;42288;52.182;21.156;2023-02-12T10:32:42;10.67;;;5.57;;
16979;SDS011;42288;52.182;21.156;2023-02-12T10:35:14;57.20;;;22.83;;
16979;SDS011;42288;52.182;21.156;2023-02-12T10:37:48;7.33;;;3.63;;
16979;SDS011;42288;52.182;21.156;2023-02-12T10:40:50;41.70;;;19.33;;
16979;SDS011;42288;52.182;21.156;2023-02-12T10:43:18;10.97;;;4.30;;
16979;SDS011;42288;52.182;21.156;2023-02-12T10:45:44;6.43;;;3.60;;
16979;SDS011;42288;52.182;21.156;2023-02-12T10:48:12;7.57;;;3.80;;
16979;SDS011;42288;52.182;21.156;2023-02-12T10:53:34;5.17;;;2.80;;
16979;SDS011;42288;52.182;21.156;2023-02-12T10:58:40;6.40;;;2.80;;
16979;SDS011;42288;52.182;21.156;2023-02-12T11:01:30;6.13;;;2.70;;
16979;SDS011;42288;52.182;21.156;2023-02-12T11:03:59;5.67;;;2.87;;
16979;SDS011;42288;52.182;21.156;2023-02-12T11:07:04;4.87;;;2.60;;
16979;SDS011;42288;52.182;21.156;2023-02-12T11:09:36;4.40;;;2.63;;
16979;SDS011;42288;52.182;21.156;2023-02-12T11:14:53;7.60;;;3.30;;
16979;SDS011;42288;52.182;21.156;2023-02-12T11:17:25;19.97;;;10.63;;
16979;SDS011;42288;52.182;21.156;2023-02-12T11:22:51;4.97;;;3.20;;
16979;SDS011;42288;52.182;21.156;2023-02-12T11:25:20;17.63;;;8.03;;
16979;SDS011;42288;52.182;21.156;2023-02-12T11:30:26;17.77;;;8.10;;
16979;SDS011;42288;52.182;21.156;2023-02-12T11:32:51;6.03;;;3.47;;
16979;SDS011;42288;52.182;21.156;2023-02-12T11:35:18;36.33;;;16.53;;
16979;SDS011;42288;52.182;21.156;2023-02-12T11:37:50;27.80;;;14.27;;
16979;SDS011;42288;52.182;21.156;2023-02-12T11:42:51;4.83;;;3.50;;
16979;SDS011;42288;52.182;21.156;2023-02-12T11:45:33;10.03;;;4.90;;
16979;SDS011;42288;52.182;21.156;2023-02-12T11:48:18;6.17;;;3.93;;
16979;SDS011;42288;52.182;21.156;2023-02-12T11:50:47;6.50;;;4.10;;
16979;SDS011;42288;52.182;21.156;2023-02-12T11:53:27;8.10;;;4.53;;
16979;SDS011;42288;52.182;21.156;2023-02-12T11:56:00;10.80;;;4.80;;
16979;SDS011;42288;52.182;21.156;2023-02-12T11:58:27;9.40;;;5.10;;
16979;SDS011;42288;52.182;21.156;2023-02-12T12:08:46;10.33;;;5.17;;
16979;SDS011;42288;52.182;21.156;2023-02-12T12:11:14;9.83;;;4.50;;
16979;SDS011;42288;52.182;21.156;2023-02-12T12:14:02;6.27;;;4.03;;
16979;SDS011;42288;52.182;21.156;2023-02-12T12:16:35;6.73;;;4.27;;
16979;SDS011;42288;52.182;21.156;2023-02-12T12:19:27;6.57;;;4.67;;
16979;SDS011;42288;52.182;21.156;2023-02-12T12:30:52;27.27;;;12.73;;
16979;SDS011;42288;52.182;21.156;2023-02-12T12:38:43;8.37;;;4.77;;
16979;SDS011;42288;52.182;21.156;2023-02-12T12:47:02;6.40;;;4.20;;
16979;SDS011;42288;52.182;21.156;2023-02-12T12:57:59;9.30;;;4.43;;
16979;SDS011;42288;52.182;21.156;2023-02-12T13:10:54;11.40;;;4.23;;
16979;SDS011;42288;52.182;21.156;2023-02-12T13:13:37;9.77;;;4.83;;
16979;SDS011;42288;52.182;21.156;2023-02-12T13:16:08;33.57;;;14.60;;
16979;SDS011;42288;52.182;21.156;2023-02-12T13:26:58;8.27;;;4.00;;
16979;SDS011;42288;52.182;21.156;2023-02-12T13:34:39;19.67;;;11.03;;
16979;SDS011;42288;52.182;21.156;2023-02-12T13:37:08;12.07;;;7.80;;
16979;SDS011;42288;52.182;21.156;2023-02-12T13:39:42;8.00;;;4.00;;
16979;SDS011;42288;52.182;21.156;2023-02-12T13:53:18;8.53;;;4.40;;
16979;SDS011;42288;52.182;21.156;2023-02-12T13:56:00;7.13;;;4.30;;
16979;SDS011;42288;52.182;21.156;2023-02-12T14:01:09;7.57;;;4.60;;
16979;SDS011;42288;52.182;21.156;2023-02-12T14:03:37;9.67;;;4.80;;
16979;SDS011;42288;52.182;21.156;2023-02-12T14:08:41;8.50;;;4.43;;
16979;SDS011;42288;52.182;21.156;2023-02-12T14:11:14;6.27;;;3.70;;
16979;SDS011;42288;52.182;21.156;2023-02-12T14:13:59;8.53;;;4.23;;
16979;SDS011;42288;52.182;21.156;2023-02-12T14:21:56;6.83;;;3.80;;
16979;SDS011;42288;52.182;21.156;2023-02-12T14:27:16;8.97;;;3.97;;
16979;SDS011;42288;52.182;21.156;2023-02-12T14:45:55;7.40;;;4.57;;
16979;SDS011;42288;52.182;21.156;2023-02-12T14:51:11;8.93;;;4.83;;
16979;SDS011;42288;52.182;21.156;2023-02-12T14:53:43;10.40;;;4.70;;
16979;SDS011;42288;52.182;21.156;2023-02-12T14:56:11;10.97;;;4.97;;
16979;SDS011;42288;52.182;21.156;2023-02-12T14:58:37;9.10;;;4.90;;
16979;SDS011;42288;52.182;21.156;2023-02-12T15:01:03;12.53;;;5.70;;
16979;SDS011;42288;52.182;21.156;2023-02-12T15:06:06;10.27;;;5.40;;
16979;SDS011;42288;52.182;21.156;2023-02-12T15:08:42;8.37;;;4.70;;
16979;SDS011;42288;52.182;21.156;2023-02-12T15:11:13;10.37;;;5.27;;
16979;SDS011;42288;52.182;21.156;2023-02-12T15:19:37;11.87;;;6.00;;
16979;SDS011;42288;52.182;21.156;2023-02-12T15:24:52;13.17;;;6.60;;
16979;SDS011;42288;52.182;21.156;2023-02-12T15:27:17;12.90;;;6.17;;
16979;SDS011;42288;52.182;21.156;2023-02-12T15:29:45;11.37;;;6.00;;
16979;SDS011;42288;52.182;21.156;2023-02-12T15:32:15;12.83;;;5.53;;
16979;SDS011;42288;52.182;21.156;2023-02-12T15:34:47;13.17;;;5.57;;
16979;SDS011;42288;52.182;21.156;2023-02-12T15:37:19;12.33;;;6.43;;
16979;SDS011;42288;52.182;21.156;2023-02-12T15:39:51;12.73;;;5.87;;
16979;SDS011;42288;52.182;21.156;2023-02-12T15:42:27;11.87;;;5.83;;
16979;SDS011;42288;52.182;21.156;2023-02-12T15:45:06;10.57;;;5.87;;
16979;SDS011;42288;52.182;21.156;2023-02-12T15:47:38;11.70;;;6.37;;
16979;SDS011;42288;52.182;21.156;2023-02-12T15:50:05;12.27;;;6.00;;
16979;SDS011;42288;52.182;21.156;2023-02-12T15:52:36;11.90;;;6.43;;
16979;SDS011;42288;52.182;21.156;2023-02-12T15:55:03;12.67;;;6.03;;
16979;SDS011;42288;52.182;21.156;2023-02-12T15:57:30;13.57;;;6.70;;
16979;SDS011;42288;52.182;21.156;2023-02-12T16:00:00;14.37;;;7.70;;
16979;SDS011;42288;52.182;21.156;2023-02-12T16:02:30;27.53;;;10.63;;
16979;SDS011;42288;52.182;21.156;2023-02-12T16:04:59;22.50;;;10.50;;
16979;SDS011;42288;52.182;21.156;2023-02-12T16:07:28;22.20;;;10.40;;
16979;SDS011;42288;52.182;21.156;2023-02-12T16:09:56;23.63;;;10.47;;
16979;SDS011;42288;52.182;21.156;2023-02-12T16:12:23;18.30;;;8.73;;
16979;SDS011;42288;52.182;21.156;2023-02-12T16:14:53;18.07;;;8.77;;
16979;SDS011;42288;52.182;21.156;2023-02-12T16:19:57;15.37;;;9.27;;
16979;SDS011;42288;52.182;21.156;2023-02-12T16:22:31;16.37;;;9.07;;
16979;SDS011;42288;52.182;21.156;2023-02-12T16:25:02;19.00;;;9.87;;
16979;SDS011;42288;52.182;21.156;2023-02-12T16:27:37;18.63;;;10.27;;
16979;SDS011;42288;52.182;21.156;2023-02-12T16:30:06;18.60;;;10.17;;
16979;SDS011;42288;52.182;21.156;2023-02-12T16:32:48;16.13;;;9.33;;
16979;SDS011;42288;52.182;21.156;2023-02-12T16:48:05;21.40;;;11.13;;
16979;SDS011;42288;52.182;21.156;2023-02-12T16:50:55;30.33;;;15.70;;
16979;SDS011;42288;52.182;21.156;2023-02-12T16:53:25;26.97;;;14.00;;
16979;SDS011;42288;52.182;21.156;2023-02-12T16:55:51;29.03;;;14.40;;
16979;SDS011;42288;52.182;21.156;2023-02-12T16:58:16;25.40;;;13.13;;
16979;SDS011;42288;52.182;21.156;2023-02-12T17:00:42;25.57;;;12.97;;
16979;SDS011;42288;52.182;21.156;2023-02-12T17:03:11;23.77;;;13.50;;
16979;SDS011;42288;52.182;21.156;2023-02-12T17:05:37;25.77;;;14.40;;
16979;SDS011;42288;52.182;21.156;2023-02-12T17:08:05;25.97;;;14.37;;
16979;SDS011;42288;52.182;21.156;2023-02-12T17:10:36;24.90;;;14.30;;
16979;SDS011;42288;52.182;21.156;2023-02-12T17:13:02;23.87;;;13.67;;
16979;SDS011;42288;52.182;21.156;2023-02-12T17:15:29;36.03;;;16.33;;
16979;SDS011;42288;52.182;21.156;2023-02-12T17:17:58;24.43;;;14.00;;
16979;SDS011;42288;52.182;21.156;2023-02-12T17:20:24;26.93;;;13.73;;
16979;SDS011;42288;52.182;21.156;2023-02-12T17:22:52;21.60;;;13.03;;
16979;SDS011;42288;52.182;21.156;2023-02-12T17:25:19;24.53;;;13.50;;
16979;SDS011;42288;52.182;21.156;2023-02-12T17:27:45;26.47;;;12.57;;
16979;SDS011;42288;52.182;21.156;2023-02-12T17:30:14;24.33;;;13.67;;
16979;SDS011;42288;52.182;21.156;2023-02-12T17:32:42;19.20;;;11.47;;
16979;SDS011;42288;52.182;21.156;2023-02-12T17:35:07;28.10;;;13.47;;
16979;SDS011;42288;52.182;21.156;2023-02-12T17:37:33;25.90;;;14.70;;
16979;SDS011;42288;52.182;21.156;2023-02-12T17:39:59;27.33;;;13.93;;
16979;SDS011;42288;52.182;21.156;2023-02-12T17:42:25;44.93;;;19.63;;
16979;SDS011;42288;52.182;21.156;2023-02-12T17:44:51;44.70;;;18.70;;
16979;SDS011;42288;52.182;21.156;2023-02-12T17:47:17;44.17;;;20.87;;
16979;SDS011;42288;52.182;21.156;2023-02-12T17:49:43;39.57;;;17.97;;
16979;SDS011;42288;52.182;21.156;2023-02-12T17:52:08;60.67;;;23.97;;
16979;SDS011;42288;52.182;21.156;2023-02-12T17:54:34;91.43;;;34.70;;
16979;SDS011;42288;52.182;21.156;2023-02-12T17:57:00;47.60;;;20.23;;
16979;SDS011;42288;52.182;21.156;2023-02-12T17:59:25;55.37;;;24.73;;
16979;SDS011;42288;52.182;21.156;2023-02-12T18:01:51;42.57;;;19.20;;
16979;SDS011;42288;52.182;21.156;2023-02-12T18:04:16;45.80;;;20.37;;
16979;SDS011;42288;52.182;21.156;2023-02-12T18:06:42;72.80;;;31.03;;
16979;SDS011;42288;52.182;21.156;2023-02-12T18:09:08;70.73;;;29.57;;
16979;SDS011;42288;52.182;21.156;2023-02-12T18:11:33;40.23;;;19.57;;
16979;SDS011;42288;52.182;21.156;2023-02-12T18:13:59;39.27;;;18.00;;
16979;SDS011;42288;52.182;21.156;2023-02-12T18:16:26;35.37;;;17.00;;
16979;SDS011;42288;52.182;21.156;2023-02-12T18:18:54;28.87;;;15.20;;
16979;SDS011;42288;52.182;21.156;2023-02-12T18:21:21;28.43;;;15.87;;
16979;SDS011;42288;52.182;21.156;2023-02-12T18:23:47;36.87;;;19.17;;
16979;SDS011;42288;52.182;21.156;2023-02-12T18:26:13;38.83;;;18.70;;